Kinsbury, United Kingdom
Current Conditions -  °F | °C
As of 1:50 PM on Sunday 25 Jan 2015 (Local Time) from EGWU Reporting Station
Broken Clouds Broken Clouds  
Wind Chill: 41°   Ceiling: 2400
Heat Index: 46°   Visibility: 6mi
Dew Point: 37°   Wind: 12mph
Humidity: 71%   Direction: 260°W
Pressure: 30.36"   Gusts: NA
Location:  51.58°N, 0.26°W
Report Text: EGWU 251350Z 26010KT 9999 BKN024 08/03 Q1028 NOSIG
Loading
Personal Weather Stations






























Interactive Weather Map New forecast layout! Learn more

10-Day Weather Forecast

Advertisements
Track Severe Weather on mobile